Time;durP1;ratioP1;P1;durP2;ratioP2;P2;SDS_P1;SDS_P2;PMS_P1;PMS_P2;Temp;Humidity;BMP_temperature;BMP_pressure;BME280_temperature;BME280_humidity;BME280_pressure;Samples;Min_cycle;Max_cycle;Signal;HPM_P1;HPM_P2
2022/05/31 00:00:12;;;;;;;8.38;7.50;;;;;;;;;;4995323;28;20054;-66
2022/05/31 00:02:42;;;;;;;8.05;7.25;;;;;;;;;;4977060;28;20817;-67
2022/05/31 00:05:12;;;;;;;7.22;6.63;;;;;;;;;;4994896;28;20046;-66
2022/05/31 00:07:42;;;;;;;8.82;5.90;;;;;;;;;;4994539;28;20054;-66
2022/05/31 00:10:13;;;;;;;9.15;7.50;;;;;;;;;;4977871;28;20050;-66
2022/05/31 00:12:42;;;;;;;9.18;7.65;;;;;;;;;;4995136;28;20096;-66
2022/05/31 00:15:15;;;;;;;9.27;7.70;;;;;;;;;;4990057;28;20104;-66
2022/05/31 00:17:44;;;;;;;12.00;8.80;;;;;;;;;;4994944;28;20059;-66
2022/05/31 00:20:15;;;;;;;9.57;7.55;;;;;;;;;;4994133;28;20137;-66
2022/05/31 00:22:45;;;;;;;10.50;8.77;;;;;;;;;;4994662;28;20058;-66
2022/05/31 00:25:17;;;;;;;11.95;8.10;;;;;;;;;;4980190;28;20078;-66
2022/05/31 00:27:46;;;;;;;8.07;7.32;;;;;;;;;;4994633;28;20465;-66
2022/05/31 00:30:17;;;;;;;10.95;7.78;;;;;;;;;;4993873;28;20523;-66
2022/05/31 00:32:49;;;;;;;11.23;7.97;;;;;;;;;;4994348;28;20058;-66
2022/05/31 00:35:30;;;;;;;8.70;7.45;;;;;;;;;;4994526;28;20050;-66
2022/05/31 00:38:01;;;;;;;8.38;7.45;;;;;;;;;;4977367;28;20114;-65
2022/05/31 00:40:32;;;;;;;10.43;8.07;;;;;;;;;;4994655;28;20054;-65
2022/05/31 00:43:10;;;;;;;9.20;8.05;;;;;;;;;;4976723;28;20058;-66
2022/05/31 00:45:53;;;;;;;8.25;7.25;;;;;;;;;;4994363;28;20042;-66
2022/05/31 00:48:31;;;;;;;12.70;8.15;;;;;;;;;;4993726;28;20486;-66
2022/05/31 00:51:06;;;;;;;22.88;9.27;;;;;;;;;;4988273;28;20058;-66
2022/05/31 00:53:38;;;;;;;8.55;7.72;;;;;;;;;;4961739;28;20061;-66
2022/05/31 00:56:13;;;;;;;8.20;7.40;;;;;;;;;;4992786;28;20058;-66
2022/05/31 00:58:49;;;;;;;10.15;7.60;;;;;;;;;;4992760;28;20046;-66
2022/05/31 01:01:19;;;;;;;9.73;7.95;;;;;;;;;;4993008;28;20054;-66
2022/05/31 01:03:48;;;;;;;10.30;8.00;;;;;;;;;;4993542;28;20054;-66
2022/05/31 01:06:17;;;;;;;8.93;8.02;;;;;;;;;;4993839;28;20077;-66
2022/05/31 01:08:47;;;;;;;9.32;8.30;;;;;;;;;;4993927;28;20129;-66
2022/05/31 01:11:47;;;;;;;9.35;8.43;;;;;;;;;;4965336;28;20095;-65
2022/05/31 01:14:15;;;;;;;9.63;8.43;;;;;;;;;;4993667;28;20046;-66
2022/05/31 01:17:08;;;;;;;8.88;7.97;;;;;;;;;;4915227;29;20150;-66
2022/05/31 01:20:06;;;;;;;;;;;;;;;;;;4990338;28;20053;-66
2022/05/31 01:22:52;;;;;;;10.98;8.98;;;;;;;;;;4962333;28;20408;-66
2022/05/31 01:25:36;;;;;;;10.55;9.35;;;;;;;;;;4959609;28;20050;-66
2022/05/31 01:28:09;;;;;;;11.93;9.38;;;;;;;;;;4997817;28;20045;-66
2022/05/31 01:30:43;;;;;;;12.68;9.70;;;;;;;;;;4984528;28;20390;-66
2022/05/31 01:33:34;;;;;;;12.68;8.27;;;;;;;;;;4996289;28;20050;-66
2022/05/31 01:36:10;;;;;;;14.35;9.02;;;;;;;;;;4996090;28;20061;-66
2022/05/31 01:39:04;;;;;;;11.68;9.55;;;;;;;;;;4985761;28;20046;-66
2022/05/31 01:41:46;;;;;;;13.02;8.98;;;;;;;;;;4971394;28;20062;-66
2022/05/31 01:44:16;;;;;;;11.95;8.90;;;;;;;;;;4974039;28;20457;-66
2022/05/31 01:46:46;;;;;;;12.98;11.40;;;;;;;;;;4996512;28;20050;-66
2022/05/31 01:49:17;;;;;;;14.65;12.57;;;;;;;;;;4979698;28;20057;-66
2022/05/31 01:51:47;;;;;;;16.50;14.30;;;;;;;;;;4997350;28;20050;-66
2022/05/31 01:54:18;;;;;;;20.77;13.98;;;;;;;;;;4979649;28;20057;-66
2022/05/31 01:56:52;;;;;;;20.67;14.63;;;;;;;;;;4979500;28;20058;-66
2022/05/31 01:59:22;;;;;;;16.90;14.02;;;;;;;;;;4996185;28;20053;-66
2022/05/31 02:01:53;;;;;;;16.40;14.70;;;;;;;;;;4979787;28;20105;-66
2022/05/31 02:04:26;;;;;;;23.48;14.32;;;;;;;;;;4979956;28;20050;-66
2022/05/31 02:07:11;;;;;;;16.40;13.68;;;;;;;;;;4979442;28;20553;-66
2022/05/31 02:09:45;;;;;;;15.15;13.02;;;;;;;;;;4974698;28;20057;-66
2022/05/31 02:12:26;;;;;;;21.50;15.35;;;;;;;;;;4979136;28;20038;-66
2022/05/31 02:15:23;;;;;;;14.82;13.32;;;;;;;;;;4981234;28;20465;-66
2022/05/31 02:19:15;;;;;;;19.63;13.00;;;;;;;;;;4974006;28;20058;-66
2022/05/31 02:21:35;;;;;;;12.82;11.60;;;;;;;;;;4994428;28;20136;-66
2022/05/31 02:24:10;;;;;;;13.35;11.98;;;;;;;;;;4996471;28;20169;-67
2022/05/31 02:26:43;;;;;;;16.70;11.32;;;;;;;;;;4979442;28;20042;-66
2022/05/31 02:29:21;;;;;;;16.45;10.80;;;;;;;;;;4975356;28;20046;-66
2022/05/31 02:31:51;;;;;;;15.32;11.15;;;;;;;;;;4979231;28;20132;-66
2022/05/31 02:34:24;;;;;;;22.67;13.10;;;;;;;;;;4978854;28;20100;-65
2022/05/31 02:36:53;;;;;;;14.13;11.13;;;;;;;;;;4979266;28;20078;-66
2022/05/31 02:39:22;;;;;;;15.23;11.57;;;;;;;;;;4978199;28;20513;-66
2022/05/31 02:41:52;;;;;;;16.42;11.07;;;;;;;;;;4964419;28;20120;-66
2022/05/31 02:44:20;;;;;;;18.45;12.65;;;;;;;;;;4978878;28;20042;-65
2022/05/31 02:46:50;;;;;;;21.17;13.07;;;;;;;;;;4978858;28;20145;-66
2022/05/31 02:49:19;;;;;;;16.02;12.32;;;;;;;;;;4979016;28;20077;-66
2022/05/31 02:51:51;;;;;;;22.25;15.07;;;;;;;;;;4978584;28;20055;-66
2022/05/31 02:54:21;;;;;;;23.45;14.73;;;;;;;;;;4979032;28;20043;-66
2022/05/31 02:57:14;;;;;;;18.70;13.13;;;;;;;;;;4976558;28;20112;-66
2022/05/31 02:59:52;;;;;;;18.67;12.40;;;;;;;;;;4996423;28;20113;-67
2022/05/31 03:02:22;;;;;;;16.55;13.05;;;;;;;;;;4995865;28;20092;-66
2022/05/31 03:05:08;;;;;;;15.93;12.95;;;;;;;;;;4996549;28;20090;-66
2022/05/31 03:07:58;;;;;;;16.20;13.48;;;;;;;;;;4991234;28;20086;-66
2022/05/31 03:10:32;;;;;;;17.58;13.73;;;;;;;;;;4996083;28;20142;-66
2022/05/31 03:13:02;;;;;;;14.25;12.75;;;;;;;;;;4978343;28;20046;-66
2022/05/31 03:15:34;;;;;;;24.50;14.27;;;;;;;;;;4996079;28;20054;-66
2022/05/31 03:18:09;;;;;;;17.88;15.20;;;;;;;;;;4981582;28;20093;-67
2022/05/31 03:20:52;;;;;;;21.00;16.63;;;;;;;;;;4995319;28;20432;-66
2022/05/31 03:23:28;;;;;;;17.27;15.48;;;;;;;;;;4984905;28;20460;-66
2022/05/31 03:25:59;;;;;;;21.25;16.10;;;;;;;;;;4995657;28;20070;-66
2022/05/31 03:28:28;;;;;;;24.55;17.05;;;;;;;;;;4996035;28;20054;-66
2022/05/31 03:31:00;;;;;;;21.42;17.58;;;;;;;;;;4977857;28;20062;-66
2022/05/31 03:33:29;;;;;;;18.58;16.70;;;;;;;;;;4978446;28;20406;-66
2022/05/31 03:35:59;;;;;;;23.13;18.17;;;;;;;;;;4995284;28;20057;-66
2022/05/31 03:38:45;;;;;;;21.65;18.00;;;;;;;;;;4978278;28;20053;-66
2022/05/31 03:41:16;;;;;;;22.65;17.42;;;;;;;;;;4987907;28;20141;-67
2022/05/31 03:43:55;;;;;;;21.05;18.35;;;;;;;;;;4973546;28;20057;-66
2022/05/31 03:46:48;;;;;;;;;;;;;;;;;;4976083;28;20062;-66
2022/05/31 03:49:40;;;;;;;25.33;17.80;;;;;;;;;;4988737;28;20355;-66
2022/05/31 03:52:08;;;;;;;18.63;15.52;;;;;;;;;;4977289;28;20050;-66
2022/05/31 03:54:43;;;;;;;;;;;;;;;;;;4978328;28;20057;-66
2022/05/31 03:57:19;;;;;;;23.20;16.25;;;;;;;;;;4997773;28;19921;-66
2022/05/31 03:59:59;;;;;;;23.33;15.93;;;;;;;;;;4993196;28;20042;-66
2022/05/31 04:02:55;;;;;;;18.80;15.85;;;;;;;;;;4991203;28;20058;-66
2022/05/31 04:05:24;;;;;;;17.20;15.18;;;;;;;;;;4977559;28;20054;-66
2022/05/31 04:07:56;;;;;;;19.17;14.68;;;;;;;;;;4977373;28;20537;-66
2022/05/31 04:10:29;;;;;;;17.95;15.18;;;;;;;;;;4977217;28;20045;-66
2022/05/31 04:12:58;;;;;;;24.63;15.82;;;;;;;;;;4977927;28;20452;-66
2022/05/31 04:15:47;;;;;;;16.50;13.10;;;;;;;;;;4994308;28;20109;-66
2022/05/31 04:18:20;;;;;;;20.40;14.65;;;;;;;;;;4995419;28;20042;-66
2022/05/31 04:20:50;;;;;;;17.50;14.43;;;;;;;;;;4976893;28;20093;-66
2022/05/31 04:26:32;;;;;;;17.10;15.27;;;;;;;;;;4994202;28;20460;-66
2022/05/31 04:29:40;;;;;;;16.17;14.48;;;;;;;;;;4953319;29;20091;-66
2022/05/31 04:32:28;;;;;;;15.30;13.80;;;;;;;;;;4953660;29;20106;-66
2022/05/31 04:34:59;;;;;;;17.50;15.60;;;;;;;;;;4961114;28;20055;-65
2022/05/31 04:37:39;;;;;;;20.90;14.60;;;;;;;;;;4993858;28;20560;-65
2022/05/31 04:40:48;;;;;;;22.10;14.15;;;;;;;;;;4978190;28;20076;-66
2022/05/31 04:43:16;;;;;;;20.00;15.15;;;;;;;;;;4994121;28;20050;-66
2022/05/31 04:46:16;;;;;;;18.42;14.85;;;;;;;;;;4972475;28;20085;-66
2022/05/31 04:49:07;;;;;;;18.83;15.35;;;;;;;;;;4976753;28;20046;-66
2022/05/31 04:51:37;;;;;;;21.10;15.23;;;;;;;;;;4992253;28;20133;-66
2022/05/31 04:54:08;;;;;;;17.05;14.82;;;;;;;;;;4970375;28;20046;-65
2022/05/31 04:56:57;;;;;;;17.80;14.85;;;;;;;;;;4993981;28;20064;-66
2022/05/31 04:59:29;;;;;;;18.27;14.13;;;;;;;;;;4965989;28;20414;-67
2022/05/31 05:01:58;;;;;;;19.48;15.85;;;;;;;;;;4976268;28;20082;-67
2022/05/31 05:04:43;;;;;;;16.92;14.43;;;;;;;;;;4975827;28;20046;-67
2022/05/31 05:07:30;;;;;;;16.83;14.23;;;;;;;;;;4990873;28;20073;-67
2022/05/31 05:10:01;;;;;;;18.77;14.73;;;;;;;;;;4975735;28;20049;-68
2022/05/31 05:12:48;;;;;;;16.08;14.45;;;;;;;;;;4976311;28;20100;-67
2022/05/31 05:15:41;;;;;;;15.77;14.00;;;;;;;;;;4993440;28;20089;-67
2022/05/31 05:18:13;;;;;;;16.35;14.65;;;;;;;;;;4976041;28;20104;-68
2022/05/31 05:20:44;;;;;;;15.73;14.18;;;;;;;;;;4974653;28;20497;-67
2022/05/31 05:23:12;;;;;;;18.48;16.65;;;;;;;;;;4975298;28;20461;-68
2022/05/31 05:25:48;;;;;;;18.00;15.00;;;;;;;;;;4975573;28;20046;-68
2022/05/31 05:31:32;;;;;;;16.23;14.52;;;;;;;;;;4992611;28;20053;-67
2022/05/31 05:34:20;;;;;;;;;;;;;;;;;;4993512;28;20050;-68
2022/05/31 05:36:53;;;;;;;19.40;15.13;;;;;;;;;;4974270;28;19928;-67
2022/05/31 05:39:23;;;;;;;21.67;15.55;;;;;;;;;;4973609;28;20065;-68
2022/05/31 05:41:57;;;;;;;18.88;15.35;;;;;;;;;;4991342;28;20062;-67
2022/05/31 05:44:46;;;;;;;16.25;13.95;;;;;;;;;;4972637;28;20418;-66
2022/05/31 05:47:16;;;;;;;15.77;14.18;;;;;;;;;;4971032;28;20066;-66
2022/05/31 05:49:47;;;;;;;15.45;13.82;;;;;;;;;;4987821;28;20125;-65
2022/05/31 05:52:35;;;;;;;16.85;13.32;;;;;;;;;;4990818;28;20081;-65
2022/05/31 05:55:23;;;;;;;19.42;13.63;;;;;;;;;;4992677;28;20060;-66
2022/05/31 05:58:10;;;;;;;17.00;13.27;;;;;;;;;;4988452;28;20096;-66
2022/05/31 06:00:59;;;;;;;16.80;14.35;;;;;;;;;;4983487;28;20069;-65
2022/05/31 06:03:42;;;;;;;19.65;14.07;;;;;;;;;;4974250;28;20050;-67
2022/05/31 06:06:13;;;;;;;15.63;14.02;;;;;;;;;;4990330;28;20046;-68
2022/05/31 06:08:53;;;;;;;16.30;14.68;;;;;;;;;;4993593;28;20057;-70
2022/05/31 06:11:42;;;;;;;15.90;13.15;;;;;;;;;;4993010;28;20404;-70
2022/05/31 06:14:15;;;;;;;19.50;14.27;;;;;;;;;;4994524;28;20053;-70
2022/05/31 06:17:07;;;;;;;16.27;13.27;;;;;;;;;;4973183;28;20089;-69
2022/05/31 06:19:42;;;;;;;20.50;13.68;;;;;;;;;;4975851;28;20489;-70
2022/05/31 06:22:10;;;;;;;21.63;14.65;;;;;;;;;;4975492;28;20058;-71
2022/05/31 06:24:59;;;;;;;18.15;13.27;;;;;;;;;;4976406;28;20080;-72
2022/05/31 06:27:51;;;;;;;16.52;14.15;;;;;;;;;;4987520;28;20105;-71
2022/05/31 06:30:20;;;;;;;15.73;14.13;;;;;;;;;;4969057;28;20046;-71
2022/05/31 06:32:50;;;;;;;17.70;13.98;;;;;;;;;;4977140;28;20050;-71
2022/05/31 06:35:20;;;;;;;17.35;14.00;;;;;;;;;;4977407;28;20050;-71
2022/05/31 06:37:56;;;;;;;15.63;13.88;;;;;;;;;;4994104;28;20050;-71
2022/05/31 06:40:27;;;;;;;14.43;12.98;;;;;;;;;;4977141;28;20046;-71
2022/05/31 06:43:18;;;;;;;16.10;14.50;;;;;;;;;;4974153;28;20050;-71
2022/05/31 06:46:07;;;;;;;20.02;15.15;;;;;;;;;;4994092;28;20050;-71
2022/05/31 06:49:05;;;;;;;20.85;16.45;;;;;;;;;;4943173;28;20063;-71
2022/05/31 06:57:47;;;;;;;17.42;15.63;;;;;;;;;;4993145;28;20130;-71
2022/05/31 07:00:39;;;;;;;18.25;15.20;;;;;;;;;;4972338;28;20050;-70
2022/05/31 07:03:14;;;;;;;18.10;15.50;;;;;;;;;;4978016;28;20064;-71
2022/05/31 07:05:43;;;;;;;20.90;15.65;;;;;;;;;;4978744;28;20054;-70
2022/05/31 07:08:16;;;;;;;27.60;14.43;;;;;;;;;;4978436;28;20042;-71
2022/05/31 07:10:58;;;;;;;21.15;15.25;;;;;;;;;;4995579;28;20819;-71
2022/05/31 07:13:27;;;;;;;18.85;16.27;;;;;;;;;;4992561;28;20085;-73
2022/05/31 07:16:17;;;;;;;18.45;16.45;;;;;;;;;;4978248;28;20081;-72
2022/05/31 07:19:06;;;;;;;18.17;15.80;;;;;;;;;;4995374;28;20066;-71
2022/05/31 07:21:41;;;;;;;27.02;17.35;;;;;;;;;;4978063;28;20081;-71
2022/05/31 07:24:09;;;;;;;18.85;16.95;;;;;;;;;;4993925;28;20109;-72
2022/05/31 07:26:55;;;;;;;18.33;16.42;;;;;;;;;;4978048;28;20058;-72
2022/05/31 07:29:28;;;;;;;24.33;17.05;;;;;;;;;;4977797;28;20053;-71
2022/05/31 07:31:58;;;;;;;23.02;16.95;;;;;;;;;;4977108;28;20058;-71
2022/05/31 07:34:46;;;;;;;19.60;16.83;;;;;;;;;;4989488;28;20066;-72
2022/05/31 07:37:19;;;;;;;20.38;17.20;;;;;;;;;;4977376;28;20066;-72
2022/05/31 07:39:50;;;;;;;23.02;15.85;;;;;;;;;;4975638;28;20161;-72
2022/05/31 07:42:20;;;;;;;23.85;18.05;;;;;;;;;;4977928;28;20046;-72
2022/05/31 07:44:55;;;;;;;28.15;18.23;;;;;;;;;;4977946;28;20050;-72
2022/05/31 07:47:24;;;;;;;19.52;17.60;;;;;;;;;;4977809;28;20497;-71
2022/05/31 07:49:56;;;;;;;19.55;16.55;;;;;;;;;;4977707;28;20081;-72
2022/05/31 07:52:52;;;;;;;23.05;18.58;;;;;;;;;;4988580;28;20062;-71
2022/05/31 07:55:57;;;;;;;26.50;18.35;;;;;;;;;;4995352;28;20069;-71
2022/05/31 07:58:54;;;;;;;24.48;18.33;;;;;;;;;;4958619;28;20188;-71
2022/05/31 08:01:41;;;;;;;22.55;17.80;;;;;;;;;;4991429;28;20409;-71
2022/05/31 08:04:23;;;;;;;25.98;18.15;;;;;;;;;;4977550;28;20567;-72
2022/05/31 08:06:57;;;;;;;20.83;17.35;;;;;;;;;;4994835;28;20054;-71
2022/05/31 08:09:27;;;;;;;21.00;17.85;;;;;;;;;;4994920;28;20062;-71
2022/05/31 08:11:57;;;;;;;23.23;17.73;;;;;;;;;;4977101;28;20073;-71
2022/05/31 08:14:27;;;;;;;20.30;16.80;;;;;;;;;;4993445;28;20050;-71
2022/05/31 08:16:56;;;;;;;22.15;17.02;;;;;;;;;;4993660;28;20047;-71
2022/05/31 08:19:26;;;;;;;23.55;18.23;;;;;;;;;;4993957;28;20560;-71
2022/05/31 08:21:57;;;;;;;23.55;18.08;;;;;;;;;;4994501;28;20054;-72
2022/05/31 08:24:28;;;;;;;24.67;19.33;;;;;;;;;;4992347;28;20458;-72
2022/05/31 08:27:14;;;;;;;27.92;20.90;;;;;;;;;;4988723;28;20047;-72
2022/05/31 08:29:42;;;;;;;26.77;21.15;;;;;;;;;;4994251;28;20080;-72
2022/05/31 08:32:11;;;;;;;28.90;22.58;;;;;;;;;;4992200;28;20054;-72
2022/05/31 08:34:42;;;;;;;33.63;27.27;;;;;;;;;;4992817;28;20046;-72
2022/05/31 08:37:13;;;;;;;31.10;26.15;;;;;;;;;;4992023;28;20050;-72
2022/05/31 08:39:42;;;;;;;31.75;23.38;;;;;;;;;;4992749;28;20144;-73
2022/05/31 08:42:20;;;;;;;31.58;25.52;;;;;;;;;;4992192;28;20088;-72
2022/05/31 08:45:00;;;;;;;38.13;31.05;;;;;;;;;;4972493;28;20043;-72
2022/05/31 08:47:41;;;;;;;36.63;32.15;;;;;;;;;;4988951;28;20532;-72
2022/05/31 08:53:24;;;;;;;42.58;35.08;;;;;;;;;;4985158;28;20046;-71
2022/05/31 08:59:03;;;;;;;36.67;30.50;;;;;;;;;;4991713;28;20086;-72
2022/05/31 09:01:52;;;;;;;36.33;27.25;;;;;;;;;;4976449;28;20046;-72
2022/05/31 09:04:27;;;;;;;31.02;27.30;;;;;;;;;;4991499;28;20042;-72
2022/05/31 09:07:00;;;;;;;33.28;29.50;;;;;;;;;;4992652;28;20046;-72
2022/05/31 09:09:38;;;;;;;39.97;29.85;;;;;;;;;;4987819;28;20397;-72
2022/05/31 09:12:28;;;;;;;39.42;29.98;;;;;;;;;;4983527;28;20493;-72
2022/05/31 09:15:14;;;;;;;38.20;27.02;;;;;;;;;;4981446;28;20042;-72
2022/05/31 09:17:49;;;;;;;28.42;23.17;;;;;;;;;;4992313;28;20105;-72
2022/05/31 09:20:26;;;;;;;25.42;22.73;;;;;;;;;;4993963;28;20078;-72
2022/05/31 09:22:54;;;;;;;25.10;21.58;;;;;;;;;;4993771;28;21032;-72
2022/05/31 09:25:26;;;;;;;26.40;21.60;;;;;;;;;;4993981;28;20058;-72
2022/05/31 09:27:56;;;;;;;29.20;22.02;;;;;;;;;;4993472;28;20134;-72
2022/05/31 09:30:33;;;;;;;25.63;22.38;;;;;;;;;;4993304;28;20379;-72
2022/05/31 09:33:12;;;;;;;32.58;23.60;;;;;;;;;;4977236;28;20054;-73
2022/05/31 09:36:10;;;;;;;27.13;23.40;;;;;;;;;;4987033;28;20046;-73
2022/05/31 09:38:58;;;;;;;29.67;22.08;;;;;;;;;;4992776;28;20565;-72
2022/05/31 09:41:39;;;;;;;26.77;22.23;;;;;;;;;;4993135;28;20409;-72
2022/05/31 09:44:14;;;;;;;29.58;21.10;;;;;;;;;;4981689;28;20054;-73
2022/05/31 09:46:48;;;;;;;;;;;;;;;;;;4979386;28;20050;-74
2022/05/31 09:49:23;;;;;;;26.13;21.08;;;;;;;;;;4996338;28;19964;-73
2022/05/31 09:51:52;;;;;;;24.00;20.95;;;;;;;;;;4983739;28;20137;-73
2022/05/31 09:57:24;;;;;;;21.25;17.85;;;;;;;;;;4997195;28;20125;-73
2022/05/31 10:00:04;;;;;;;17.85;15.43;;;;;;;;;;4981901;28;20058;-73
2022/05/31 10:03:05;;;;;;;17.98;15.15;;;;;;;;;;4995769;28;20050;-72
2022/05/31 10:05:39;;;;;;;18.95;15.00;;;;;;;;;;4986747;28;20129;-72
2022/05/31 10:08:29;;;;;;;17.80;15.45;;;;;;;;;;4996626;28;20057;-72
2022/05/31 10:11:04;;;;;;;18.98;16.67;;;;;;;;;;4997187;28;20065;-72
2022/05/31 10:13:40;;;;;;;17.27;15.52;;;;;;;;;;4997134;28;20054;-72
2022/05/31 10:16:19;;;;;;;17.70;15.93;;;;;;;;;;4988395;28;20056;-73
2022/05/31 10:18:54;;;;;;;18.92;14.68;;;;;;;;;;4997303;28;20082;-72
2022/05/31 10:21:43;;;;;;;17.73;15.70;;;;;;;;;;4996348;28;20054;-72
2022/05/31 10:24:29;;;;;;;17.75;14.27;;;;;;;;;;4974242;28;20061;-71
2022/05/31 10:27:28;;;;;;;17.20;15.40;;;;;;;;;;4979694;28;20133;-72
2022/05/31 10:30:22;;;;;;;17.75;15.73;;;;;;;;;;4994055;28;20421;-72
2022/05/31 10:33:03;;;;;;;20.55;15.25;;;;;;;;;;4993672;28;20076;-72
2022/05/31 10:35:33;;;;;;;18.90;15.02;;;;;;;;;;4994707;28;20050;-72
2022/05/31 10:38:16;;;;;;;17.83;15.93;;;;;;;;;;4995679;28;20050;-73
2022/05/31 10:40:52;;;;;;;21.40;15.65;;;;;;;;;;4996277;28;20043;-72
2022/05/31 10:43:27;;;;;;;15.32;13.80;;;;;;;;;;4993756;28;20045;-72
2022/05/31 10:45:57;;;;;;;17.83;15.27;;;;;;;;;;4994286;28;20490;-71
2022/05/31 10:48:27;;;;;;;19.92;14.35;;;;;;;;;;4993866;28;20078;-72
2022/05/31 10:51:34;;;;;;;16.80;13.02;;;;;;;;;;4994252;28;20078;-73
2022/05/31 10:54:28;;;;;;;21.58;12.90;;;;;;;;;;4992361;28;20073;-73
2022/05/31 10:57:12;;;;;;;17.77;13.98;;;;;;;;;;4992813;28;20523;-72
2022/05/31 10:59:41;;;;;;;18.98;14.80;;;;;;;;;;4994655;28;20242;-72
2022/05/31 11:02:31;;;;;;;13.73;12.32;;;;;;;;;;4995933;28;20073;-72
2022/05/31 11:05:11;;;;;;;13.65;12.25;;;;;;;;;;4993403;28;20058;-73
2022/05/31 11:14:18;;;;;;;14.68;11.52;;;;;;;;;;4977204;28;20058;-73
2022/05/31 11:17:31;;;;;;;14.32;10.18;;;;;;;;;;4987339;28;20109;-72
2022/05/31 11:20:19;;;;;;;13.18;8.90;;;;;;;;;;4973465;28;20069;-73
2022/05/31 11:23:10;;;;;;;9.32;8.30;;;;;;;;;;4994182;28;20050;-72
2022/05/31 11:26:24;;;;;;;9.68;8.75;;;;;;;;;;4995789;28;20042;-73
2022/05/31 11:29:51;;;;;;;11.35;10.10;;;;;;;;;;4995377;28;20057;-73
2022/05/31 11:32:43;;;;;;;14.57;10.00;;;;;;;;;;4995009;28;20054;-72
2022/05/31 11:35:44;;;;;;;14.38;11.35;;;;;;;;;;4994370;28;20042;-72
2022/05/31 11:38:25;;;;;;;11.95;10.07;;;;;;;;;;4995391;28;20093;-73
2022/05/31 11:41:33;;;;;;;13.70;9.07;;;;;;;;;;4975634;28;20413;-73
2022/05/31 11:44:26;;;;;;;10.73;9.55;;;;;;;;;;4964569;28;20078;-73
2022/05/31 11:47:18;;;;;;;9.95;8.90;;;;;;;;;;4995450;28;20051;-72
2022/05/31 11:50:24;;;;;;;13.95;9.63;;;;;;;;;;4994992;28;20058;-73
2022/05/31 11:53:18;;;;;;;10.18;8.57;;;;;;;;;;4994702;28;20705;-72
2022/05/31 11:56:09;;;;;;;11.23;7.95;;;;;;;;;;4977294;28;20109;-72
2022/05/31 11:58:41;;;;;;;11.05;8.60;;;;;;;;;;4994995;28;20497;-72
2022/05/31 12:01:31;;;;;;;13.18;7.68;;;;;;;;;;4992222;28;20050;-72
2022/05/31 12:04:00;;;;;;;11.10;7.75;;;;;;;;;;4994557;28;20417;-72
2022/05/31 12:06:32;;;;;;;10.15;6.82;;;;;;;;;;4994409;28;20536;-71
2022/05/31 12:09:34;;;;;;;10.50;7.70;;;;;;;;;;4994736;28;20058;-72
2022/05/31 12:12:39;;;;;;;7.82;7.05;;;;;;;;;;4943290;28;20505;-72
2022/05/31 12:15:29;;;;;;;8.27;6.53;;;;;;;;;;4932896;29;20091;-73
2022/05/31 12:18:22;;;;;;;12.38;7.85;;;;;;;;;;4990474;28;20047;-71
2022/05/31 12:21:08;;;;;;;10.73;5.65;;;;;;;;;;4993794;28;20112;-72
2022/05/31 12:24:21;;;;;;;9.07;7.60;;;;;;;;;;4993693;28;20133;-73
2022/05/31 12:27:24;;;;;;;11.68;6.32;;;;;;;;;;4994443;28;20044;-73
2022/05/31 12:30:22;;;;;;;12.45;7.13;;;;;;;;;;4991144;28;20484;-72
2022/05/31 12:33:50;;;;;;;12.73;5.85;;;;;;;;;;4991810;28;20054;-72
2022/05/31 12:36:20;;;;;;;11.38;7.03;;;;;;;;;;4989701;28;20101;-72
2022/05/31 12:39:08;;;;;;;10.20;6.93;;;;;;;;;;4994139;28;20050;-72
2022/05/31 12:41:40;;;;;;;8.00;6.10;;;;;;;;;;4993431;28;20312;-72
2022/05/31 12:44:11;;;;;;;8.98;6.95;;;;;;;;;;4993926;28;20046;-72
2022/05/31 12:46:46;;;;;;;10.45;6.10;;;;;;;;;;4991732;28;20421;-72
2022/05/31 12:49:20;;;;;;;11.05;6.43;;;;;;;;;;4991409;28;20137;-72
2022/05/31 12:52:38;;;;;;;15.70;6.30;;;;;;;;;;4992718;28;20068;-72
2022/05/31 12:55:01;;;;;;;13.98;5.75;;;;;;;;;;4989650;28;20050;-72
2022/05/31 12:58:26;;;;;;;9.70;6.90;;;;;;;;;;4991774;28;20046;-72
2022/05/31 13:00:31;;;;;;;7.35;5.55;;;;;;;;;;4992380;28;20048;-72
2022/05/31 13:03:05;;;;;;;11.77;7.90;;;;;;;;;;4945321;28;20050;-72
2022/05/31 13:05:40;;;;;;;13.32;6.10;;;;;;;;;;5012109;28;20058;-72
2022/05/31 13:08:22;;;;;;;10.75;5.95;;;;;;;;;;4994776;28;20057;-71
2022/05/31 13:19:41;;;;;;;8.68;5.53;;;;;;;;;;5011334;28;20057;-73
2022/05/31 13:22:16;;;;;;;9.15;5.75;;;;;;;;;;5012761;28;20424;-72
2022/05/31 13:25:02;;;;;;;10.95;6.47;;;;;;;;;;5012283;28;20127;-73
2022/05/31 13:27:35;;;;;;;9.15;6.45;;;;;;;;;;5012703;28;20058;-72
2022/05/31 13:30:12;;;;;;;12.23;6.90;;;;;;;;;;5012990;28;20064;-72
2022/05/31 13:32:40;;;;;;;13.55;7.55;;;;;;;;;;5012063;28;20044;-72
2022/05/31 13:35:24;;;;;;;8.75;6.05;;;;;;;;;;5012859;28;20455;-73
2022/05/31 13:38:16;;;;;;;9.38;6.68;;;;;;;;;;5012193;28;20046;-72
2022/05/31 13:40:53;;;;;;;12.30;7.05;;;;;;;;;;4996501;28;20108;-72
2022/05/31 13:43:25;;;;;;;9.80;7.10;;;;;;;;;;4995377;28;20050;-72
2022/05/31 13:45:57;;;;;;;9.60;6.80;;;;;;;;;;5011645;28;20050;-72
2022/05/31 13:48:30;;;;;;;10.02;6.75;;;;;;;;;;5013216;28;20104;-72
2022/05/31 13:51:20;;;;;;;8.90;6.35;;;;;;;;;;5011637;28;20054;-72
2022/05/31 13:53:52;;;;;;;8.07;6.90;;;;;;;;;;5012811;28;20049;-72
2022/05/31 13:56:26;;;;;;;11.40;6.93;;;;;;;;;;5012606;28;20050;-72
2022/05/31 13:58:56;;;;;;;11.75;7.13;;;;;;;;;;5012201;28;20049;-72
2022/05/31 14:01:57;;;;;;;8.70;5.72;;;;;;;;;;5012078;28;20064;-72
2022/05/31 14:04:32;;;;;;;7.50;6.68;;;;;;;;;;5012167;28;20125;-73
2022/05/31 14:07:05;;;;;;;19.90;7.70;;;;;;;;;;4998146;28;20046;-72
2022/05/31 14:09:36;;;;;;;10.35;7.40;;;;;;;;;;5012162;28;20050;-72
2022/05/31 14:12:08;;;;;;;7.90;5.95;;;;;;;;;;5012245;28;20636;-73
2022/05/31 14:14:44;;;;;;;11.23;6.65;;;;;;;;;;5010483;28;20068;-72
2022/05/31 14:17:32;;;;;;;11.32;6.43;;;;;;;;;;5012292;28;20061;-74
2022/05/31 14:20:33;;;;;;;8.00;6.78;;;;;;;;;;5009218;28;20129;-70
2022/05/31 14:23:07;;;;;;;12.38;7.47;;;;;;;;;;5006710;28;20539;-70
2022/05/31 14:25:45;;;;;;;11.30;6.53;;;;;;;;;;5001253;28;20054;-72
2022/05/31 14:28:20;;;;;;;8.55;6.50;;;;;;;;;;5013495;28;20057;-72
2022/05/31 14:30:56;;;;;;;9.63;6.10;;;;;;;;;;4993979;28;20054;-72
2022/05/31 14:33:28;;;;;;;12.50;5.32;;;;;;;;;;5009642;28;20066;-72
2022/05/31 14:35:59;;;;;;;11.23;7.30;;;;;;;;;;5014120;28;20512;-73
2022/05/31 14:38:36;;;;;;;12.95;5.95;;;;;;;;;;5004292;28;20076;-72
2022/05/31 14:41:25;;;;;;;17.15;6.47;;;;;;;;;;5009087;28;20054;-72
2022/05/31 14:44:02;;;;;;;8.52;7.05;;;;;;;;;;5015938;28;20050;-72
2022/05/31 14:46:31;;;;;;;12.35;6.30;;;;;;;;;;5011672;28;20052;-72
2022/05/31 14:49:39;;;;;;;12.75;6.35;;;;;;;;;;4999695;28;20123;-72
2022/05/31 14:52:53;;;;;;;9.45;6.57;;;;;;;;;;4983572;28;20056;-72
2022/05/31 14:55:21;;;;;;;11.23;5.78;;;;;;;;;;4955884;28;20059;-72
2022/05/31 15:00:51;;;;;;;14.18;6.53;;;;;;;;;;5011464;28;20128;-72
2022/05/31 15:03:30;;;;;;;8.68;5.80;;;;;;;;;;4997747;28;20053;-72
2022/05/31 15:06:23;;;;;;;14.13;5.97;;;;;;;;;;5015299;28;20120;-72
2022/05/31 15:09:19;;;;;;;21.70;6.63;;;;;;;;;;5012614;28;20061;-72
2022/05/31 15:20:48;;;;;;;8.35;5.47;;;;;;;;;;5011974;28;20137;-75
2022/05/31 15:23:24;;;;;;;17.15;6.35;;;;;;;;;;5015598;28;20057;-70
2022/05/31 15:25:55;;;;;;;11.68;5.43;;;;;;;;;;5013909;28;20394;-76
2022/05/31 15:28:25;;;;;;;12.52;6.45;;;;;;;;;;4998269;28;20543;-78
2022/05/31 15:31:05;;;;;;;14.88;6.07;;;;;;;;;;5014894;28;20061;-76
2022/05/31 15:33:54;;;;;;;13.00;7.55;;;;;;;;;;4997425;28;20073;-77
2022/05/31 15:36:26;;;;;;;12.88;6.22;;;;;;;;;;5014770;28;20115;-77
2022/05/31 15:39:00;;;;;;;6.65;4.63;;;;;;;;;;5010110;28;20046;-77
2022/05/31 15:41:30;;;;;;;8.73;5.78;;;;;;;;;;5013932;28;20046;-76
2022/05/31 15:44:02;;;;;;;11.00;6.07;;;;;;;;;;5014300;28;20054;-76
2022/05/31 15:46:35;;;;;;;8.63;5.72;;;;;;;;;;5009313;28;20058;-76
2022/05/31 15:49:07;;;;;;;9.40;5.65;;;;;;;;;;5013350;28;20548;-76
2022/05/31 15:51:39;;;;;;;10.82;6.15;;;;;;;;;;5012912;28;20100;-76
2022/05/31 15:54:13;;;;;;;10.60;6.47;;;;;;;;;;5011948;28;20074;-76
2022/05/31 15:56:43;;;;;;;10.20;5.95;;;;;;;;;;5012684;28;20046;-76
2022/05/31 15:59:17;;;;;;;15.50;7.00;;;;;;;;;;5012961;28;20068;-76
2022/05/31 16:01:46;;;;;;;9.93;5.50;;;;;;;;;;5011022;28;20126;-76
2022/05/31 16:04:19;;;;;;;13.30;6.20;;;;;;;;;;5012005;28;20050;-76
2022/05/31 16:06:51;;;;;;;12.00;6.10;;;;;;;;;;5014079;28;20045;-76
2022/05/31 16:09:23;;;;;;;10.65;6.32;;;;;;;;;;5010796;28;20713;-73
2022/05/31 16:11:53;;;;;;;7.38;5.70;;;;;;;;;;5013085;28;20148;-75
2022/05/31 16:14:22;;;;;;;8.05;5.53;;;;;;;;;;5008225;28;20521;-74
2022/05/31 16:16:53;;;;;;;29.50;8.00;;;;;;;;;;5013097;28;20049;-74
2022/05/31 16:19:25;;;;;;;12.57;6.00;;;;;;;;;;5014055;28;20100;-74
2022/05/31 16:21:55;;;;;;;7.80;5.53;;;;;;;;;;5014254;28;20045;-73
2022/05/31 16:24:31;;;;;;;12.38;5.55;;;;;;;;;;5010946;28;20819;-74